createdAt,value
2022-08-26T00:01:00.218Z,100.00
2022-08-26T00:06:02.150Z,100.00
2022-08-26T00:11:04.567Z,100.00
2022-08-26T00:16:08.885Z,100.00
2022-08-26T00:21:13.300Z,100.00
2022-08-26T00:26:15.383Z,100.00
2022-08-26T00:31:17.107Z,100.00
2022-08-26T00:36:20.377Z,100.00
2022-08-26T00:41:22.249Z,100.00
2022-08-26T00:46:29.164Z,100.00
2022-08-26T00:51:31.498Z,100.00
2022-08-26T00:56:47.056Z,100.00
2022-08-26T01:01:51.649Z,100.00
2022-08-26T01:06:54.574Z,100.00
2022-08-26T01:11:59.372Z,100.00
2022-08-26T01:17:05.056Z,100.00
2022-08-26T01:22:12.291Z,100.00
2022-08-26T01:27:17.992Z,100.00
2022-08-26T01:32:22.465Z,100.00
2022-08-26T01:37:32.945Z,100.00
2022-08-26T01:42:34.795Z,100.00
2022-08-26T01:47:38.440Z,100.00
2022-08-26T01:52:43.230Z,100.00
2022-08-26T01:57:47.554Z,100.00
2022-08-26T02:03:13.795Z,100.00
2022-08-26T02:08:20.526Z,100.00
2022-08-26T02:13:30.055Z,100.00
2022-08-26T02:18:35.056Z,100.00
2022-08-26T02:23:38.190Z,100.00
2022-08-26T02:28:56.385Z,100.00
2022-08-26T02:34:13.525Z,100.00
2022-08-26T02:39:22.295Z,100.00
2022-08-26T02:44:24.187Z,100.00
2022-08-26T02:49:27.834Z,100.00
2022-08-26T02:54:29.635Z,100.00
2022-08-26T02:59:32.440Z,100.00
2022-08-26T03:04:34.202Z,100.00
2022-08-26T03:09:35.910Z,100.00
2022-08-26T03:14:37.893Z,100.00
2022-08-26T03:19:39.654Z,100.00
2022-08-26T03:24:46.197Z,100.00
2022-08-26T03:30:06.636Z,100.00
2022-08-26T03:35:09.566Z,100.00
2022-08-26T03:40:12.173Z,100.00
2022-08-26T03:45:15.431Z,100.00
2022-08-26T03:50:23.022Z,100.00
2022-08-26T03:55:28.233Z,100.00
2022-08-26T04:00:30.700Z,100.00
2022-08-26T04:05:32.402Z,100.00
2022-08-26T04:10:34.148Z,100.00
2022-08-26T04:15:35.853Z,100.00
2022-08-26T04:20:37.922Z,100.00
2022-08-26T04:25:40.575Z,100.00
2022-08-26T04:30:42.502Z,100.00
2022-08-26T04:35:45.256Z,100.00
2022-08-26T04:40:49.818Z,100.00
2022-08-26T04:45:51.454Z,100.00
2022-08-26T04:50:53.309Z,100.00
2022-08-26T04:55:55.215Z,100.00
2022-08-26T05:00:57.165Z,100.00
2022-08-26T05:05:58.789Z,100.00
2022-08-26T05:11:04.810Z,100.00
2022-08-26T05:16:11.598Z,100.00
2022-08-26T05:21:22.176Z,100.00
2022-08-26T05:26:27.522Z,100.00
2022-08-26T05:31:32.632Z,100.00
2022-08-26T05:36:39.302Z,100.00
2022-08-26T05:41:42.890Z,100.00
2022-08-26T05:46:46.785Z,100.00
2022-08-26T05:51:48.512Z,100.00
2022-08-26T05:56:52.576Z,100.00
2022-08-26T06:01:57.363Z,100.00
2022-08-26T06:06:59.977Z,100.00
2022-08-26T06:12:01.914Z,100.00
2022-08-26T06:17:04.412Z,100.00
2022-08-26T06:22:26.170Z,100.00
2022-08-26T06:27:32.498Z,100.00
2022-08-26T06:32:34.593Z,100.00
2022-08-26T06:37:36.834Z,100.00
2022-08-26T06:42:38.647Z,100.00
2022-08-26T06:47:40.916Z,97.38
2022-08-26T06:52:42.635Z,92.75
2022-08-26T06:57:44.281Z,92.59
2022-08-26T07:02:46.958Z,90.89
2022-08-26T07:07:49.255Z,89.93
2022-08-26T07:12:51.476Z,87.25
2022-08-26T07:17:53.084Z,87.46
2022-08-26T07:22:54.893Z,84.83
2022-08-26T07:27:56.611Z,82.87
2022-08-26T07:32:59.260Z,85.54
2022-08-26T07:38:01.708Z,83.11
2022-08-26T07:43:03.955Z,83.77
2022-08-26T07:48:05.875Z,79.15
2022-08-26T07:53:10.810Z,78.92
2022-08-26T07:58:12.850Z,80.75
2022-08-26T08:03:15.169Z,79.55
2022-08-26T08:08:26.727Z,76.77
2022-08-26T08:13:30.082Z,76.15
2022-08-26T08:18:31.891Z,74.61
2022-08-26T08:23:33.886Z,71.26
2022-08-26T08:28:37.017Z,69.96
2022-08-26T08:33:38.737Z,68.42
2022-08-26T08:38:40.581Z,66.17
2022-08-26T08:43:47.444Z,69.31
2022-08-26T08:48:59.255Z,68.68
2022-08-26T08:54:02.685Z,68.14
2022-08-26T08:59:18.750Z,67.30
2022-08-26T09:04:43.467Z,64.96
2022-08-26T09:10:00.866Z,64.35
2022-08-26T09:15:07.850Z,62.44
2022-08-26T09:20:37.831Z,61.23
2022-08-26T09:25:49.969Z,60.16
2022-08-26T09:31:14.097Z,60.42
2022-08-26T09:36:18.814Z,63.87
2022-08-26T09:41:33.131Z,66.41
2022-08-26T09:46:35.608Z,66.75
2022-08-26T09:51:37.558Z,67.82
2022-08-26T09:56:39.770Z,68.50
2022-08-26T10:01:44.778Z,70.37
2022-08-26T10:07:08.129Z,72.26
2022-08-26T10:12:19.306Z,73.06
2022-08-26T10:17:26.604Z,74.84
2022-08-26T10:22:47.680Z,77.55
2022-08-26T10:28:03.235Z,79.23
2022-08-26T10:33:11.045Z,79.96
2022-08-26T10:38:17.025Z,75.01
2022-08-26T10:43:27.158Z,75.15
2022-08-26T10:48:59.995Z,70.90
2022-08-26T10:54:01.828Z,72.91
2022-08-26T10:59:38.504Z,67.23
2022-08-26T11:04:59.059Z,61.75
2022-08-26T11:10:20.611Z,60.55
2022-08-26T11:15:26.078Z,60.21
2022-08-26T11:20:41.581Z,55.93
2022-08-26T11:26:01.953Z,57.23
2022-08-26T11:31:08.596Z,57.53
2022-08-26T11:36:26.052Z,58.61
2022-08-26T11:41:30.891Z,60.13
2022-08-26T11:46:37.489Z,60.65
2022-08-26T11:51:40.851Z,56.48
2022-08-26T11:56:46.866Z,55.52
2022-08-26T12:01:51.274Z,54.89
2022-08-26T12:06:53.431Z,52.76
2022-08-26T12:12:16.462Z,52.27
2022-08-26T12:17:26.962Z,50.50
2022-08-26T12:22:32.121Z,49.02
2022-08-26T12:27:39.867Z,46.50
2022-08-26T12:32:57.511Z,49.44
2022-08-26T12:38:00.027Z,48.90
2022-08-26T12:43:04.987Z,46.76
2022-08-26T12:48:08.539Z,47.20
2022-08-26T12:53:10.254Z,49.66
2022-08-26T12:58:15.755Z,46.02
2022-08-26T13:03:35.323Z,45.95
2022-08-26T13:08:40.484Z,44.70
2022-08-26T13:13:42.174Z,45.01
2022-08-26T13:18:43.806Z,45.56
2022-08-26T13:23:46.481Z,45.24
2022-08-26T13:29:02.001Z,44.15
2022-08-26T13:34:04.848Z,45.22
2022-08-26T13:39:06.696Z,46.00
2022-08-26T13:44:08.363Z,46.08
2022-08-26T13:49:10.668Z,44.82
2022-08-26T13:54:12.366Z,44.64
2022-08-26T13:59:14.372Z,47.39
2022-08-26T14:04:15.965Z,50.35
2022-08-26T14:09:24.908Z,52.25
2022-08-26T14:14:26.939Z,54.20
2022-08-26T14:19:30.051Z,53.72
2022-08-26T14:24:31.669Z,55.69
2022-08-26T14:29:33.413Z,55.03
2022-08-26T14:34:35.205Z,53.06
2022-08-26T14:39:37.343Z,53.44
2022-08-26T14:44:43.483Z,53.10
2022-08-26T14:49:45.158Z,51.21
2022-08-26T14:54:46.786Z,53.62
2022-08-26T14:59:50.473Z,51.92
2022-08-26T15:04:52.220Z,51.49
2022-08-26T15:09:53.855Z,51.48
2022-08-26T15:14:55.583Z,51.30
2022-08-26T15:19:57.688Z,52.67
2022-08-26T15:24:59.533Z,50.65
2022-08-26T15:30:10.548Z,50.23
2022-08-26T15:35:12.185Z,48.41
2022-08-26T15:40:13.928Z,50.10
2022-08-26T15:45:25.994Z,49.08
2022-08-26T15:50:29.024Z,49.71
2022-08-26T15:55:30.613Z,52.35
2022-08-26T16:00:32.960Z,53.63
2022-08-26T16:05:39.255Z,53.10
2022-08-26T16:10:49.204Z,54.08
2022-08-26T16:15:52.842Z,54.97
2022-08-26T16:21:12.729Z,55.55
2022-08-26T16:26:24.276Z,56.52
2022-08-26T16:31:26.129Z,56.54
2022-08-26T16:36:27.849Z,56.29
2022-08-26T16:41:31.742Z,56.99
2022-08-26T16:46:35.644Z,58.10
2022-08-26T16:51:38.450Z,59.39
2022-08-26T16:56:40.263Z,57.58
2022-08-26T17:01:41.886Z,58.57
2022-08-26T17:06:43.556Z,60.36
2022-08-26T17:11:45.562Z,62.03
2022-08-26T17:16:51.100Z,62.10
2022-08-26T17:21:52.596Z,62.60
2022-08-26T17:26:55.774Z,62.87
2022-08-26T17:31:57.481Z,62.93
2022-08-26T17:36:59.480Z,63.73
2022-08-26T17:42:01.019Z,64.76
2022-08-26T17:47:02.588Z,65.09
2022-08-26T17:52:07.477Z,67.08
2022-08-26T17:57:12.681Z,66.51
2022-08-26T18:02:14.647Z,67.95
2022-08-26T18:07:17.025Z,66.88
2022-08-26T18:12:18.687Z,68.23
2022-08-26T18:17:20.393Z,70.12
2022-08-26T18:22:23.290Z,69.97
2022-08-26T18:27:25.110Z,70.48
2022-08-26T18:32:26.938Z,74.41
2022-08-26T18:37:31.417Z,78.37
2022-08-26T18:42:33.657Z,81.05
2022-08-26T18:47:35.340Z,88.42
2022-08-26T18:52:37.614Z,92.72
2022-08-26T18:57:39.932Z,94.36
2022-08-26T19:02:41.731Z,97.95
2022-08-26T19:07:48.718Z,99.44
2022-08-26T19:12:52.073Z,99.41
2022-08-26T19:17:54.083Z,100.00
2022-08-26T19:22:59.691Z,99.10
2022-08-26T19:28:04.261Z,99.10
2022-08-26T19:33:09.092Z,100.00
2022-08-26T19:38:11.183Z,100.00
2022-08-26T19:43:12.820Z,100.00
2022-08-26T19:48:16.222Z,100.00
2022-08-26T19:53:17.917Z,100.00
2022-08-26T19:58:21.003Z,100.00
2022-08-26T20:03:24.628Z,100.00
2022-08-26T20:08:26.356Z,100.00
2022-08-26T20:13:29.062Z,100.00
2022-08-26T20:18:49.344Z,100.00
2022-08-26T20:23:51.669Z,100.00
2022-08-26T20:28:53.858Z,100.00
2022-08-26T20:33:55.768Z,100.00
2022-08-26T20:38:58.062Z,100.00
2022-08-26T20:44:00.413Z,100.00
2022-08-26T20:49:02.908Z,100.00
2022-08-26T20:54:07.810Z,100.00
2022-08-26T20:59:09.895Z,100.00
2022-08-26T21:04:15.148Z,100.00
2022-08-26T21:09:17.660Z,100.00
2022-08-26T21:14:22.879Z,100.00
2022-08-26T21:19:27.408Z,100.00
2022-08-26T21:24:29.088Z,100.00
2022-08-26T21:29:30.800Z,100.00
2022-08-26T21:34:32.589Z,100.00
2022-08-26T21:39:34.195Z,100.00
2022-08-26T21:44:35.792Z,100.00
2022-08-26T21:49:37.773Z,100.00
2022-08-26T21:54:39.578Z,100.00
2022-08-26T21:59:41.188Z,100.00
2022-08-26T22:04:46.812Z,100.00
2022-08-26T22:09:50.451Z,100.00
2022-08-26T22:14:52.189Z,100.00
2022-08-26T22:19:54.441Z,100.00
2022-08-26T22:24:56.068Z,100.00
2022-08-26T22:29:57.845Z,100.00
2022-08-26T22:34:59.576Z,100.00
2022-08-26T22:40:01.298Z,100.00
2022-08-26T22:45:05.897Z,100.00
2022-08-26T22:50:08.931Z,100.00
2022-08-26T22:55:10.938Z,100.00
2022-08-26T23:00:14.157Z,100.00
2022-08-26T23:05:16.427Z,100.00
2022-08-26T23:10:18.097Z,100.00
2022-08-26T23:15:20.883Z,100.00
2022-08-26T23:20:22.708Z,100.00
2022-08-26T23:25:24.803Z,100.00
2022-08-26T23:30:28.387Z,100.00
2022-08-26T23:35:30.168Z,100.00
2022-08-26T23:40:34.912Z,100.00
2022-08-26T23:45:37.148Z,100.00
2022-08-26T23:50:57.381Z,100.00
2022-08-26T23:55:59.007Z,100.00
